sensor_id;sensor_type;location;lat;lon;timestamp;pressure;altitude;pressure_sealevel;temperature;humidity
11888;BME280;6003;42.756;23.130;2023-07-28T00:01:33;155770.50;;;13.03;80.36
11888;BME280;6003;42.756;23.130;2023-07-28T00:04:00;155736.06;;;12.90;80.76
11888;BME280;6003;42.756;23.130;2023-07-28T00:06:28;155744.00;;;12.93;80.34
11888;BME280;6003;42.756;23.130;2023-07-28T00:08:54;155744.00;;;12.93;80.53
11888;BME280;6003;42.756;23.130;2023-07-28T00:11:21;155738.69;;;12.91;80.67
11888;BME280;6003;42.756;23.130;2023-07-28T00:13:48;155728.13;;;12.87;80.74
11888;BME280;6003;42.756;23.130;2023-07-28T00:16:16;155720.16;;;12.84;80.94
11888;BME280;6003;42.756;23.130;2023-07-28T00:18:43;155721.50;;;12.84;80.89
11888;BME280;6003;42.756;23.130;2023-07-28T00:21:10;155726.78;;;12.86;80.41
11888;BME280;6003;42.756;23.130;2023-07-28T00:23:36;155722.81;;;12.85;80.62
11888;BME280;6003;42.756;23.130;2023-07-28T00:26:03;155728.13;;;12.87;80.85
11888;BME280;6003;42.756;23.130;2023-07-28T00:28:30;155702.94;;;12.77;81.00
11888;BME280;6003;42.756;23.130;2023-07-28T00:30:57;155691.03;;;12.73;81.26
11888;BME280;6003;42.756;23.130;2023-07-28T00:33:27;155680.41;;;12.69;81.20
11888;BME280;6003;42.756;23.130;2023-07-28T00:35:54;155659.28;;;12.60;81.71
11888;BME280;6003;42.756;23.130;2023-07-28T00:38:21;155651.34;;;12.57;81.71
11888;BME280;6003;42.756;23.130;2023-07-28T00:40:47;155643.34;;;12.54;81.89
11888;BME280;6003;42.756;23.130;2023-07-28T00:43:14;155640.72;;;12.53;82.09
11888;BME280;6003;42.756;23.130;2023-07-28T00:45:41;155639.41;;;12.53;81.96
11888;BME280;6003;42.756;23.130;2023-07-28T00:48:11;155611.59;;;12.42;82.59
11888;BME280;6003;42.756;23.130;2023-07-28T00:50:41;155608.97;;;12.41;82.67
11888;BME280;6003;42.756;23.130;2023-07-28T00:53:08;155585.16;;;12.32;83.47
11888;BME280;6003;42.756;23.130;2023-07-28T00:55:36;155548.09;;;12.17;83.70
11888;BME280;6003;42.756;23.130;2023-07-28T00:58:03;155561.28;;;12.23;84.12
11888;BME280;6003;42.756;23.130;2023-07-28T01:00:30;155545.41;;;12.16;83.74
11888;BME280;6003;42.756;23.130;2023-07-28T01:02:57;155553.34;;;12.19;84.19
11888;BME280;6003;42.756;23.130;2023-07-28T01:05:28;155540.16;;;12.14;83.81
11888;BME280;6003;42.756;23.130;2023-07-28T01:08:04;155550.72;;;12.18;83.81
11888;BME280;6003;42.756;23.130;2023-07-28T01:10:32;155545.41;;;12.16;83.88
11888;BME280;6003;42.756;23.130;2023-07-28T01:12:59;155524.22;;;12.08;84.65
11888;BME280;6003;42.756;23.130;2023-07-28T01:15:26;155524.22;;;12.08;84.25
11888;BME280;6003;42.756;23.130;2023-07-28T01:17:53;155529.53;;;12.10;84.01
11888;BME280;6003;42.756;23.130;2023-07-28T01:20:22;155524.22;;;12.08;84.02
11888;BME280;6003;42.756;23.130;2023-07-28T01:23:05;155522.91;;;12.08;84.28
11888;BME280;6003;42.756;23.130;2023-07-28T01:25:43;155526.91;;;12.09;84.29
11888;BME280;6003;42.756;23.130;2023-07-28T01:28:13;155533.53;;;12.12;83.85
11888;BME280;6003;42.756;23.130;2023-07-28T01:30:40;155562.66;;;12.23;83.21
11888;BME280;6003;42.756;23.130;2023-07-28T01:33:07;155578.53;;;12.29;82.91
11888;BME280;6003;42.756;23.130;2023-07-28T01:35:36;155597.03;;;12.36;82.78
11888;BME280;6003;42.756;23.130;2023-07-28T01:38:03;155599.72;;;12.37;82.75
11888;BME280;6003;42.756;23.130;2023-07-28T01:40:30;155601.03;;;12.38;83.18
11888;BME280;6003;42.756;23.130;2023-07-28T01:42:57;155589.09;;;12.33;83.13
11888;BME280;6003;42.756;23.130;2023-07-28T01:45:25;155578.53;;;12.29;82.95
11888;BME280;6003;42.756;23.130;2023-07-28T01:47:52;155553.34;;;12.19;83.40
11888;BME280;6003;42.756;23.130;2023-07-28T01:50:19;155544.09;;;12.16;83.92
11888;BME280;6003;42.756;23.130;2023-07-28T01:52:45;155525.59;;;12.09;84.10
11888;BME280;6003;42.756;23.130;2023-07-28T01:55:12;155492.47;;;11.96;84.51
11888;BME280;6003;42.756;23.130;2023-07-28T01:57:39;155471.31;;;11.88;84.58
11888;BME280;6003;42.756;23.130;2023-07-28T02:00:07;155428.94;;;11.71;85.20
11888;BME280;6003;42.756;23.130;2023-07-28T02:02:36;155418.34;;;11.67;85.50
11888;BME280;6003;42.756;23.130;2023-07-28T02:05:03;155383.97;;;11.54;86.86
11888;BME280;6003;42.756;23.130;2023-07-28T02:07:29;155370.72;;;11.49;87.05
11888;BME280;6003;42.756;23.130;2023-07-28T02:09:56;155362.81;;;11.46;87.77
11888;BME280;6003;42.756;23.130;2023-07-28T02:12:23;155352.19;;;11.42;88.00
11888;BME280;6003;42.756;23.130;2023-07-28T02:14:50;155344.25;;;11.39;88.25
11888;BME280;6003;42.756;23.130;2023-07-28T02:17:17;155308.59;;;11.25;88.75
11888;BME280;6003;42.756;23.130;2023-07-28T02:19:46;155312.53;;;11.26;88.60
11888;BME280;6003;42.756;23.130;2023-07-28T02:22:12;155316.53;;;11.28;88.68
11888;BME280;6003;42.756;23.130;2023-07-28T02:24:39;155312.53;;;11.26;89.44
11888;BME280;6003;42.756;23.130;2023-07-28T02:27:06;155320.47;;;11.29;89.07
11888;BME280;6003;42.756;23.130;2023-07-28T02:29:33;155315.16;;;11.27;88.95
11888;BME280;6003;42.756;23.130;2023-07-28T02:32:00;155305.91;;;11.24;89.29
11888;BME280;6003;42.756;23.130;2023-07-28T02:34:27;155301.97;;;11.22;89.06
11888;BME280;6003;42.756;23.130;2023-07-28T02:36:55;155294.03;;;11.19;88.89
11888;BME280;6003;42.756;23.130;2023-07-28T02:39:22;155291.34;;;11.18;89.45
11888;BME280;6003;42.756;23.130;2023-07-28T02:41:48;155286.06;;;11.16;89.38
11888;BME280;6003;42.756;23.130;2023-07-28T02:44:15;155280.81;;;11.14;89.51
11888;BME280;6003;42.756;23.130;2023-07-28T02:46:42;155279.50;;;11.14;89.61
11888;BME280;6003;42.756;23.130;2023-07-28T02:49:09;155290.03;;;11.18;89.49
11888;BME280;6003;42.756;23.130;2023-07-28T02:51:35;155246.41;;;11.01;90.24
11888;BME280;6003;42.756;23.130;2023-07-28T02:54:04;155254.34;;;11.04;90.32
11888;BME280;6003;42.756;23.130;2023-07-28T02:56:31;155235.84;;;10.97;90.69
11888;BME280;6003;42.756;23.130;2023-07-28T02:59:02;155238.47;;;10.98;90.15
11888;BME280;6003;42.756;23.130;2023-07-28T03:01:29;155217.31;;;10.90;90.74
11888;BME280;6003;42.756;23.130;2023-07-28T03:03:58;155212.06;;;10.88;91.18
11888;BME280;6003;42.756;23.130;2023-07-28T03:06:25;155209.38;;;10.87;91.45
11888;BME280;6003;42.756;23.130;2023-07-28T03:08:52;155206.75;;;10.86;91.42
11888;BME280;6003;42.756;23.130;2023-07-28T03:11:20;155217.31;;;10.90;91.12
11888;BME280;6003;42.756;23.130;2023-07-28T03:13:47;155227.91;;;10.94;91.25
11888;BME280;6003;42.756;23.130;2023-07-28T03:16:14;155230.53;;;10.95;91.36
11888;BME280;6003;42.756;23.130;2023-07-28T03:18:40;155222.63;;;10.92;91.06
11888;BME280;6003;42.756;23.130;2023-07-28T03:21:08;155205.44;;;10.85;91.32
11888;BME280;6003;42.756;23.130;2023-07-28T03:23:35;155209.38;;;10.87;91.45
11888;BME280;6003;42.756;23.130;2023-07-28T03:26:02;155216.00;;;10.89;91.85
11888;BME280;6003;42.756;23.130;2023-07-28T03:28:30;155220.00;;;10.91;91.88
11888;BME280;6003;42.756;23.130;2023-07-28T03:30:57;155238.47;;;10.98;91.86
11888;BME280;6003;42.756;23.130;2023-07-28T03:33:24;155264.94;;;11.08;91.43
11888;BME280;6003;42.756;23.130;2023-07-28T03:35:50;155283.44;;;11.15;91.23
11888;BME280;6003;42.756;23.130;2023-07-28T03:38:17;155315.16;;;11.27;90.53
11888;BME280;6003;42.756;23.130;2023-07-28T03:40:44;155348.25;;;11.40;90.40
11888;BME280;6003;42.756;23.130;2023-07-28T03:43:11;155376.03;;;11.51;90.28
11888;BME280;6003;42.756;23.130;2023-07-28T03:45:39;155391.91;;;11.57;89.88
11888;BME280;6003;42.756;23.130;2023-07-28T03:48:06;155413.06;;;11.65;89.76
11888;BME280;6003;42.756;23.130;2023-07-28T03:50:33;155406.47;;;11.63;89.60
11888;BME280;6003;42.756;23.130;2023-07-28T03:53:00;155397.16;;;11.59;89.31
11888;BME280;6003;42.756;23.130;2023-07-28T03:55:27;155432.88;;;11.73;89.19
11888;BME280;6003;42.756;23.130;2023-07-28T03:57:54;155484.53;;;11.93;88.04
11888;BME280;6003;42.756;23.130;2023-07-28T04:00:21;155532.22;;;12.11;87.94
11888;BME280;6003;42.756;23.130;2023-07-28T04:02:50;155566.59;;;12.25;88.12
11888;BME280;6003;42.756;23.130;2023-07-28T04:05:16;155616.91;;;12.44;88.25
11888;BME280;6003;42.756;23.130;2023-07-28T04:07:43;155648.66;;;12.56;87.75
11888;BME280;6003;42.756;23.130;2023-07-28T04:10:10;155692.34;;;12.73;87.33
11888;BME280;6003;42.756;23.130;2023-07-28T04:12:37;155712.22;;;12.81;86.08
11888;BME280;6003;42.756;23.130;2023-07-28T04:15:04;155728.13;;;12.87;86.02
11888;BME280;6003;42.756;23.130;2023-07-28T04:17:31;155781.06;;;13.07;85.20
11888;BME280;6003;42.756;23.130;2023-07-28T04:19:59;155847.38;;;13.33;84.75
11888;BME280;6003;42.756;23.130;2023-07-28T04:22:27;155934.81;;;13.67;84.66
11888;BME280;6003;42.756;23.130;2023-07-28T04:24:54;156064.66;;;14.17;84.01
11888;BME280;6003;42.756;23.130;2023-07-28T04:27:21;156213.19;;;14.74;80.87
11888;BME280;6003;42.756;23.130;2023-07-28T04:29:47;156570.13;;;16.12;78.45
11888;BME280;6003;42.756;23.130;2023-07-28T04:32:14;157017.84;;;17.84;72.35
11888;BME280;6003;42.756;23.130;2023-07-28T04:34:41;157424.78;;;19.41;65.12
11888;BME280;6003;42.756;23.130;2023-07-28T04:37:09;157744.38;;;20.63;60.70
11888;BME280;6003;42.756;23.130;2023-07-28T04:39:36;158029.50;;;21.73;56.48
11888;BME280;6003;42.756;23.130;2023-07-28T04:42:03;158277.50;;;22.68;53.07
11888;BME280;6003;42.756;23.130;2023-07-28T04:44:30;158192.13;;;22.35;53.64
11888;BME280;6003;42.756;23.130;2023-07-28T04:46:57;158405.56;;;23.17;51.02
11888;BME280;6003;42.756;23.130;2023-07-28T04:49:24;158386.88;;;23.10;49.83
11888;BME280;6003;42.756;23.130;2023-07-28T04:51:51;158453.56;;;23.35;50.54
11888;BME280;6003;42.756;23.130;2023-07-28T04:54:19;158429.56;;;23.26;49.69
11888;BME280;6003;42.756;23.130;2023-07-28T04:56:45;158512.28;;;23.58;48.99
11888;BME280;6003;42.756;23.130;2023-07-28T04:59:15;158544.34;;;23.70;48.88
11888;BME280;6003;42.756;23.130;2023-07-28T05:01:42;158645.78;;;24.09;47.34
11888;BME280;6003;42.756;23.130;2023-07-28T05:04:08;158806.03;;;24.70;45.52
11888;BME280;6003;42.756;23.130;2023-07-28T05:06:35;158655.13;;;24.13;46.54
11888;BME280;6003;42.756;23.130;2023-07-28T05:09:02;158450.91;;;23.34;50.35
11888;BME280;6003;42.756;23.130;2023-07-28T05:11:30;158410.91;;;23.19;49.86
11888;BME280;6003;42.756;23.130;2023-07-28T05:13:57;158500.25;;;23.53;48.02
11888;BME280;6003;42.756;23.130;2023-07-28T05:16:24;158629.78;;;24.03;46.47
11888;BME280;6003;42.756;23.130;2023-07-28T05:18:51;158683.16;;;24.23;47.79
11888;BME280;6003;42.756;23.130;2023-07-28T05:21:17;158851.41;;;24.88;44.92
11888;BME280;6003;42.756;23.130;2023-07-28T05:23:44;158852.75;;;24.88;44.71
11888;BME280;6003;42.756;23.130;2023-07-28T05:26:11;158874.13;;;24.96;45.59
11888;BME280;6003;42.756;23.130;2023-07-28T05:28:39;158810.06;;;24.72;44.49
11888;BME280;6003;42.756;23.130;2023-07-28T05:31:06;158777.97;;;24.60;44.62
11888;BME280;6003;42.756;23.130;2023-07-28T05:33:33;158655.13;;;24.13;46.45
11888;BME280;6003;42.756;23.130;2023-07-28T05:36:01;158536.28;;;23.67;46.32
11888;BME280;6003;42.756;23.130;2023-07-28T05:38:28;158609.75;;;23.95;47.25
11888;BME280;6003;42.756;23.130;2023-07-28T05:40:58;158493.63;;;23.51;47.55
11888;BME280;6003;42.756;23.130;2023-07-28T05:43:26;158784.66;;;24.62;46.02
11888;BME280;6003;42.756;23.130;2023-07-28T05:45:54;158474.91;;;23.43;48.66
11888;BME280;6003;42.756;23.130;2023-07-28T05:48:21;158378.88;;;23.07;49.94
11888;BME280;6003;42.756;23.130;2023-07-28T05:50:48;158378.88;;;23.07;49.33
11888;BME280;6003;42.756;23.130;2023-07-28T05:53:16;158576.41;;;23.82;46.52
11888;BME280;6003;42.756;23.130;2023-07-28T05:55:43;158549.69;;;23.72;46.43
11888;BME280;6003;42.756;23.130;2023-07-28T05:58:10;158504.28;;;23.55;47.98
11888;BME280;6003;42.756;23.130;2023-07-28T06:00:38;158470.94;;;23.42;48.66
11888;BME280;6003;42.756;23.130;2023-07-28T06:03:07;158378.88;;;23.07;50.39
11888;BME280;6003;42.756;23.130;2023-07-28T06:05:34;158480.28;;;23.46;49.01
11888;BME280;6003;42.756;23.130;2023-07-28T06:08:01;158324.16;;;22.86;50.85
11888;BME280;6003;42.756;23.130;2023-07-28T06:10:27;158369.53;;;23.03;49.24
11888;BME280;6003;42.756;23.130;2023-07-28T06:12:54;158357.53;;;22.98;50.41
11888;BME280;6003;42.756;23.130;2023-07-28T06:15:21;158450.91;;;23.34;49.01
11888;BME280;6003;42.756;23.130;2023-07-28T06:17:48;158466.91;;;23.40;48.70
11888;BME280;6003;42.756;23.130;2023-07-28T06:20:16;158373.56;;;23.05;50.77
11888;BME280;6003;42.756;23.130;2023-07-28T06:22:43;158322.81;;;22.85;48.85
11888;BME280;6003;42.756;23.130;2023-07-28T06:25:10;158373.56;;;23.05;49.84
11888;BME280;6003;42.756;23.130;2023-07-28T06:27:37;158405.56;;;23.17;48.92
11888;BME280;6003;42.756;23.130;2023-07-28T06:30:06;158200.13;;;22.38;52.30
11888;BME280;6003;42.756;23.130;2023-07-28T06:32:33;158336.16;;;22.90;50.46
11888;BME280;6003;42.756;23.130;2023-07-28T06:35:00;158588.38;;;23.87;50.27
11888;BME280;6003;42.756;23.130;2023-07-28T06:37:29;158599.09;;;23.91;49.23
11888;BME280;6003;42.756;23.130;2023-07-28T06:39:56;158374.91;;;23.05;51.25
11888;BME280;6003;42.756;23.130;2023-07-28T06:42:22;158322.81;;;22.85;53.50
11888;BME280;6003;42.756;23.130;2023-07-28T06:44:50;158478.94;;;23.45;49.73
11888;BME280;6003;42.756;23.130;2023-07-28T06:47:17;158506.94;;;23.56;50.97
11888;BME280;6003;42.756;23.130;2023-07-28T06:49:44;158688.47;;;24.25;48.40
11888;BME280;6003;42.756;23.130;2023-07-28T06:52:11;158412.25;;;23.19;49.89
11888;BME280;6003;42.756;23.130;2023-07-28T06:54:40;158490.94;;;23.50;49.09
11888;BME280;6003;42.756;23.130;2023-07-28T06:57:06;158525.63;;;23.63;51.25
11888;BME280;6003;42.756;23.130;2023-07-28T06:59:33;158557.69;;;23.75;48.77
11888;BME280;6003;42.756;23.130;2023-07-28T07:02:00;158321.50;;;22.85;52.08
11888;BME280;6003;42.756;23.130;2023-07-28T07:04:27;158402.88;;;23.16;51.62
11888;BME280;6003;42.756;23.130;2023-07-28T07:06:54;158420.25;;;23.23;50.81
11888;BME280;6003;42.756;23.130;2023-07-28T07:09:20;158385.53;;;23.09;50.48
11888;BME280;6003;42.756;23.130;2023-07-28T07:11:49;158317.47;;;22.83;52.19
11888;BME280;6003;42.756;23.130;2023-07-28T07:14:16;158436.25;;;23.29;50.71
11888;BME280;6003;42.756;23.130;2023-07-28T07:16:43;158529.59;;;23.64;51.64
11888;BME280;6003;42.756;23.130;2023-07-28T07:19:10;158498.94;;;23.53;50.47
11888;BME280;6003;42.756;23.130;2023-07-28T07:21:36;158531.00;;;23.65;50.41
11888;BME280;6003;42.756;23.130;2023-07-28T07:24:03;158580.38;;;23.84;49.58
11888;BME280;6003;42.756;23.130;2023-07-28T07:26:30;158605.72;;;23.94;50.95
11888;BME280;6003;42.756;23.130;2023-07-28T07:28:59;158612.41;;;23.96;48.15
11888;BME280;6003;42.756;23.130;2023-07-28T07:31:26;158531.00;;;23.65;51.29
11888;BME280;6003;42.756;23.130;2023-07-28T07:33:53;158318.81;;;22.84;51.98
11888;BME280;6003;42.756;23.130;2023-07-28T07:36:20;158501.63;;;23.54;51.40
11888;BME280;6003;42.756;23.130;2023-07-28T07:38:47;158616.41;;;23.98;50.52
11888;BME280;6003;42.756;23.130;2023-07-28T07:41:14;158643.09;;;24.08;49.85
11888;BME280;6003;42.756;23.130;2023-07-28T07:43:45;158659.16;;;24.14;49.33
11888;BME280;6003;42.756;23.130;2023-07-28T07:46:14;158683.16;;;24.23;51.05
11888;BME280;6003;42.756;23.130;2023-07-28T07:48:41;158772.66;;;24.58;48.83
11888;BME280;6003;42.756;23.130;2023-07-28T07:51:08;158731.19;;;24.42;50.51
11888;BME280;6003;42.756;23.130;2023-07-28T07:53:35;158719.22;;;24.37;50.50
11888;BME280;6003;42.756;23.130;2023-07-28T07:56:02;158795.38;;;24.66;49.07
11888;BME280;6003;42.756;23.130;2023-07-28T07:58:29;158653.81;;;24.12;51.80
11888;BME280;6003;42.756;23.130;2023-07-28T08:00:56;158656.44;;;24.13;48.79
11888;BME280;6003;42.756;23.130;2023-07-28T08:03:25;158696.53;;;24.28;50.09
11888;BME280;6003;42.756;23.130;2023-07-28T08:05:52;158544.34;;;23.70;50.27
11888;BME280;6003;42.756;23.130;2023-07-28T08:08:19;158520.28;;;23.61;52.75
11888;BME280;6003;42.756;23.130;2023-07-28T08:10:47;158597.72;;;23.91;48.93
11888;BME280;6003;42.756;23.130;2023-07-28T08:13:14;158657.78;;;24.14;49.82
11888;BME280;6003;42.756;23.130;2023-07-28T08:15:42;158748.59;;;24.48;48.68
11888;BME280;6003;42.756;23.130;2023-07-28T08:18:10;158827.41;;;24.79;50.89
11888;BME280;6003;42.756;23.130;2023-07-28T08:20:39;158779.34;;;24.60;47.98
11888;BME280;6003;42.756;23.130;2023-07-28T08:23:05;158814.03;;;24.73;48.65
11888;BME280;6003;42.756;23.130;2023-07-28T08:25:33;158935.59;;;25.20;48.95
11888;BME280;6003;42.756;23.130;2023-07-28T08:28:00;158966.31;;;25.32;46.48
11888;BME280;6003;42.756;23.130;2023-07-28T08:30:27;158896.81;;;25.05;48.69
11888;BME280;6003;42.756;23.130;2023-07-28T08:32:53;158926.25;;;25.16;47.57
11888;BME280;6003;42.756;23.130;2023-07-28T08:35:20;159031.78;;;25.57;48.58
11888;BME280;6003;42.756;23.130;2023-07-28T08:37:49;159057.22;;;25.66;49.77
11888;BME280;6003;42.756;23.130;2023-07-28T08:40:16;159049.13;;;25.63;45.58
11888;BME280;6003;42.756;23.130;2023-07-28T08:42:44;159014.44;;;25.50;46.42
11888;BME280;6003;42.756;23.130;2023-07-28T08:45:11;159018.41;;;25.52;46.17
11888;BME280;6003;42.756;23.130;2023-07-28T08:47:38;158958.31;;;25.29;46.55
11888;BME280;6003;42.756;23.130;2023-07-28T08:50:06;158934.28;;;25.19;45.68
11888;BME280;6003;42.756;23.130;2023-07-28T08:52:32;159030.47;;;25.56;45.21
11888;BME280;6003;42.756;23.130;2023-07-28T08:55:01;159017.09;;;25.51;47.17
11888;BME280;6003;42.756;23.130;2023-07-28T08:57:28;158969.03;;;25.33;44.92
11888;BME280;6003;42.756;23.130;2023-07-28T08:59:55;158768.63;;;24.56;46.29
11888;BME280;6003;42.756;23.130;2023-07-28T09:02:22;158896.81;;;25.05;48.48
11888;BME280;6003;42.756;23.130;2023-07-28T09:04:49;159030.47;;;25.56;44.80
11888;BME280;6003;42.756;23.130;2023-07-28T09:07:16;159001.06;;;25.45;44.60
11888;BME280;6003;42.756;23.130;2023-07-28T09:09:43;159057.22;;;25.66;47.18
11888;BME280;6003;42.756;23.130;2023-07-28T09:12:11;159142.75;;;25.99;45.41
11888;BME280;6003;42.756;23.130;2023-07-28T09:14:38;159213.56;;;26.26;42.32
11888;BME280;6003;42.756;23.130;2023-07-28T09:17:08;159182.81;;;26.15;43.44
11888;BME280;6003;42.756;23.130;2023-07-28T09:19:49;159153.41;;;26.03;43.42
11888;BME280;6003;42.756;23.130;2023-07-28T09:22:17;159158.78;;;26.05;44.18
11888;BME280;6003;42.756;23.130;2023-07-28T09:24:44;159200.25;;;26.21;41.47
11888;BME280;6003;42.756;23.130;2023-07-28T09:27:21;159276.47;;;26.50;44.02
11888;BME280;6003;42.756;23.130;2023-07-28T09:29:49;159239.00;;;26.36;42.13
11888;BME280;6003;42.756;23.130;2023-07-28T09:32:17;159275.13;;;26.50;42.13
11888;BME280;6003;42.756;23.130;2023-07-28T09:35:05;159305.88;;;26.62;42.56
11888;BME280;6003;42.756;23.130;2023-07-28T09:37:34;159404.81;;;26.99;42.82
11888;BME280;6003;42.756;23.130;2023-07-28T09:40:04;159424.84;;;27.07;43.59
11888;BME280;6003;42.756;23.130;2023-07-28T09:42:37;159471.72;;;27.25;42.11
11888;BME280;6003;42.756;23.130;2023-07-28T09:45:04;159469.03;;;27.24;41.74
11888;BME280;6003;42.756;23.130;2023-07-28T09:47:33;159432.84;;;27.10;41.53
11888;BME280;6003;42.756;23.130;2023-07-28T09:50:01;159432.84;;;27.10;42.34
11888;BME280;6003;42.756;23.130;2023-07-28T09:52:32;159423.50;;;27.07;41.43
11888;BME280;6003;42.756;23.130;2023-07-28T09:55:00;159474.38;;;27.26;43.46
11888;BME280;6003;42.756;23.130;2023-07-28T09:57:34;159455.69;;;27.19;41.18
11888;BME280;6003;42.756;23.130;2023-07-28T10:00:06;159517.19;;;27.42;43.56
11888;BME280;6003;42.756;23.130;2023-07-28T10:02:34;159593.44;;;27.72;41.79
11888;BME280;6003;42.756;23.130;2023-07-28T10:05:03;159618.91;;;27.81;37.52
11888;BME280;6003;42.756;23.130;2023-07-28T10:07:31;159656.34;;;27.96;37.72
11888;BME280;6003;42.756;23.130;2023-07-28T10:09:59;159783.53;;;28.44;42.61
11888;BME280;6003;42.756;23.130;2023-07-28T10:12:26;159849.13;;;28.69;39.22
11888;BME280;6003;42.756;23.130;2023-07-28T10:15:00;159932.13;;;29.01;37.53
11888;BME280;6003;42.756;23.130;2023-07-28T10:17:32;159972.31;;;29.16;34.92
11888;BME280;6003;42.756;23.130;2023-07-28T10:20:02;160011.16;;;29.31;37.46
11888;BME280;6003;42.756;23.130;2023-07-28T10:22:32;160028.59;;;29.38;36.22
11888;BME280;6003;42.756;23.130;2023-07-28T10:25:01;160058.00;;;29.49;38.89
11888;BME280;6003;42.756;23.130;2023-07-28T10:27:33;160095.56;;;29.63;35.86
11888;BME280;6003;42.756;23.130;2023-07-28T10:30:02;160111.69;;;29.70;36.62
11888;BME280;6003;42.756;23.130;2023-07-28T10:32:38;160071.41;;;29.54;32.75
11888;BME280;6003;42.756;23.130;2023-07-28T10:35:06;160052.69;;;29.47;33.70
11888;BME280;6003;42.756;23.130;2023-07-28T10:37:35;159980.34;;;29.19;34.54
11888;BME280;6003;42.756;23.130;2023-07-28T10:40:24;160001.78;;;29.28;36.02
11888;BME280;6003;42.756;23.130;2023-07-28T10:42:51;159958.94;;;29.11;36.60
11888;BME280;6003;42.756;23.130;2023-07-28T10:45:18;160037.97;;;29.41;37.47
11888;BME280;6003;42.756;23.130;2023-07-28T10:47:46;160079.44;;;29.57;37.32
11888;BME280;6003;42.756;23.130;2023-07-28T10:50:15;160158.53;;;29.87;37.30
11888;BME280;6003;42.756;23.130;2023-07-28T10:52:42;160251.00;;;30.23;35.13
11888;BME280;6003;42.756;23.130;2023-07-28T10:55:13;160288.53;;;30.37;35.46
11888;BME280;6003;42.756;23.130;2023-07-28T10:57:41;160356.88;;;30.63;36.65
11888;BME280;6003;42.756;23.130;2023-07-28T11:00:10;160344.84;;;30.58;33.50
11888;BME280;6003;42.756;23.130;2023-07-28T11:02:39;160309.97;;;30.45;35.18
11888;BME280;6003;42.756;23.130;2023-07-28T11:05:10;160312.63;;;30.46;34.77
11888;BME280;6003;42.756;23.130;2023-07-28T11:07:38;160234.91;;;30.17;34.97
11888;BME280;6003;42.756;23.130;2023-07-28T11:10:05;160237.56;;;30.18;35.47
11888;BME280;6003;42.756;23.130;2023-07-28T11:12:33;160115.66;;;29.71;35.78
11888;BME280;6003;42.756;23.130;2023-07-28T11:15:00;160027.22;;;29.37;35.51
11888;BME280;6003;42.756;23.130;2023-07-28T11:17:27;160066.09;;;29.52;37.41
11888;BME280;6003;42.756;23.130;2023-07-28T11:19:55;160066.09;;;29.52;36.75
11888;BME280;6003;42.756;23.130;2023-07-28T11:22:23;160084.81;;;29.59;35.17
11888;BME280;6003;42.756;23.130;2023-07-28T11:24:51;160121.03;;;29.73;37.47
11888;BME280;6003;42.756;23.130;2023-07-28T11:27:18;160182.66;;;29.97;35.72
11888;BME280;6003;42.756;23.130;2023-07-28T11:29:46;160208.06;;;30.06;37.43
11888;BME280;6003;42.756;23.130;2023-07-28T11:32:15;160269.81;;;30.30;37.94
11888;BME280;6003;42.756;23.130;2023-07-28T11:34:43;160301.94;;;30.42;36.10
11888;BME280;6003;42.756;23.130;2023-07-28T11:37:10;160245.59;;;30.21;33.88
11888;BME280;6003;42.756;23.130;2023-07-28T11:39:40;160212.13;;;30.08;33.61
11888;BME280;6003;42.756;23.130;2023-07-28T11:42:07;160213.44;;;30.08;33.92
11888;BME280;6003;42.756;23.130;2023-07-28T11:44:36;160173.28;;;29.93;34.24
11888;BME280;6003;42.756;23.130;2023-07-28T11:47:05;160147.78;;;29.83;34.58
11888;BME280;6003;42.756;23.130;2023-07-28T11:49:32;160157.22;;;29.87;35.71
11888;BME280;6003;42.756;23.130;2023-07-28T11:51:58;160178.59;;;29.95;36.59
11888;BME280;6003;42.756;23.130;2023-07-28T11:54:26;160183.97;;;29.97;36.76
11888;BME280;6003;42.756;23.130;2023-07-28T11:56:56;160175.94;;;29.94;37.11
11888;BME280;6003;42.756;23.130;2023-07-28T11:59:23;160201.44;;;30.04;36.22
11888;BME280;6003;42.756;23.130;2023-07-28T12:01:54;160157.22;;;29.87;33.70
11888;BME280;6003;42.756;23.130;2023-07-28T12:04:22;160088.84;;;29.61;33.36
11888;BME280;6003;42.756;23.130;2023-07-28T12:07:07;159995.09;;;29.25;36.29
11888;BME280;6003;42.756;23.130;2023-07-28T12:09:47;159964.28;;;29.13;34.61
11888;BME280;6003;42.756;23.130;2023-07-28T12:12:19;159956.25;;;29.10;35.59
11888;BME280;6003;42.756;23.130;2023-07-28T12:14:47;159984.41;;;29.21;37.78
11888;BME280;6003;42.756;23.130;2023-07-28T12:17:17;160029.94;;;29.38;38.57
11888;BME280;6003;42.756;23.130;2023-07-28T12:19:57;160013.88;;;29.32;37.15
11888;BME280;6003;42.756;23.130;2023-07-28T12:22:25;159975.00;;;29.17;36.90
11888;BME280;6003;42.756;23.130;2023-07-28T12:24:52;159945.59;;;29.06;35.48
11888;BME280;6003;42.756;23.130;2023-07-28T12:27:21;159938.88;;;29.04;35.81
11888;BME280;6003;42.756;23.130;2023-07-28T12:29:50;159904.00;;;28.90;37.30
11888;BME280;6003;42.756;23.130;2023-07-28T12:32:17;159904.00;;;28.90;39.12
11888;BME280;6003;42.756;23.130;2023-07-28T12:34:44;159926.75;;;28.99;37.23
11888;BME280;6003;42.756;23.130;2023-07-28T12:37:10;159920.06;;;28.96;38.41
11888;BME280;6003;42.756;23.130;2023-07-28T12:39:38;159895.97;;;28.87;37.62
11888;BME280;6003;42.756;23.130;2023-07-28T12:42:05;159853.13;;;28.71;37.82
11888;BME280;6003;42.756;23.130;2023-07-28T12:44:34;159850.47;;;28.70;38.19
11888;BME280;6003;42.756;23.130;2023-07-28T12:47:01;159878.59;;;28.81;38.55
11888;BME280;6003;42.756;23.130;2023-07-28T12:49:28;159874.56;;;28.79;38.75
11888;BME280;6003;42.756;23.130;2023-07-28T12:51:55;159924.09;;;28.98;39.71
11888;BME280;6003;42.756;23.130;2023-07-28T12:54:22;159979.03;;;29.19;40.06